Time;durP1;ratioP1;P1;durP2;ratioP2;P2;SDS_P1;SDS_P2;PMS_P1;PMS_P2;Temp;Humidity;BMP_temperature;BMP_pressure;BME280_temperature;BME280_humidity;BME280_pressure;Samples;Min_cycle;Max_cycle;Signal;HPM_P1;HPM_P2
2023/12/25 00:00:31;;;;;;;0.33;0.20;;;;;;;12.33;85.95;96818.25;6129395;28;20206;-49
2023/12/25 00:03:33;;;;;;;0.30;0.30;;;;;;;12.24;86.10;96795.84;6127853;28;20195;-49
2023/12/25 00:06:48;;;;;;;0.43;0.30;;;;;;;12.07;87.31;96823.69;6130418;28;20730;-49
2023/12/25 00:09:50;;;;;;;0.90;0.53;;;;;;;12.12;86.72;96815.66;6131349;28;20199;-51
2023/12/25 00:12:52;;;;;;;1.67;0.50;;;;;;;12.02;88.07;96831.72;6130959;28;20738;-52
2023/12/25 00:15:54;;;;;;;0.57;0.40;;;;;;;11.83;89.47;96860.84;6134252;28;20744;-49
2023/12/25 00:18:58;;;;;;;1.37;0.53;;;;;;;11.69;89.96;96870.44;6134115;28;20206;-49
2023/12/25 00:22:00;;;;;;;0.53;0.30;;;;;;;11.69;89.69;96864.31;6138951;28;20575;-51
2023/12/25 00:25:03;;;;;;;0.63;0.50;;;;;;;11.74;89.59;96869.63;6135817;28;20211;-48
2023/12/25 00:28:05;;;;;;;1.07;0.53;;;;;;;11.53;91.33;96867.00;6111195;28;20365;-49
2023/12/25 00:31:08;;;;;;;0.50;0.50;;;;;;;11.59;91.63;96868.59;6135133;28;20194;-48
2023/12/25 00:34:10;;;;;;;1.50;0.50;;;;;;;11.43;90.93;96861.66;6136061;28;20616;-50
2023/12/25 00:37:12;;;;;;;1.13;0.53;;;;;;;11.34;93.14;96858.72;6137255;28;20203;-52
2023/12/25 00:40:14;;;;;;;0.93;0.50;;;;;;;11.58;89.07;96850.19;6139981;28;20207;-49
2023/12/25 00:43:17;;;;;;;0.87;0.40;;;;;;;11.75;88.14;96871.22;6137164;28;20205;-50
2023/12/25 00:46:20;;;;;;;5.90;0.80;;;;;;;11.68;87.87;96868.84;6117643;29;20209;-52
2023/12/25 00:49:22;;;;;;;1.20;0.70;;;;;;;11.98;86.20;96856.56;6124264;29;20400;-49
2023/12/25 00:52:24;;;;;;;0.40;0.40;;;;;;;11.83;87.76;96838.72;6135113;28;20184;-49
2023/12/25 00:55:26;;;;;;;1.63;0.60;;;;;;;12.10;85.91;96849.84;6136005;28;20198;-50
2023/12/25 00:58:28;;;;;;;0.60;0.43;;;;;;;12.18;83.70;96834.34;6122576;28;20680;-49
2023/12/25 01:01:30;;;;;;;0.47;0.40;;;;;;;12.09;85.15;96831.44;6134978;28;20580;-50
2023/12/25 01:04:32;;;;;;;0.70;0.33;;;;;;;12.19;84.31;96836.72;6120536;29;20210;-52
2023/12/25 01:07:36;;;;;;;0.60;0.40;;;;;;;11.90;85.10;96803.72;6132998;28;20207;-52
2023/12/25 01:10:38;;;;;;;0.87;0.30;;;;;;;11.89;86.91;96853.63;6124166;29;20195;-51
2023/12/25 01:13:40;;;;;;;1.07;0.30;;;;;;;12.05;84.93;96852.53;6133186;28;20588;-50
2023/12/25 01:16:42;;;;;;;0.70;0.30;;;;;;;12.04;84.97;96866.16;6128200;28;20330;-50
2023/12/25 01:19:47;;;;;;;0.63;0.30;;;;;;;11.98;85.65;96897.38;6129253;28;20203;-50
2023/12/25 01:22:49;;;;;;;0.53;0.50;;;;;;;12.19;82.61;96866.09;6131794;28;20224;-49
2023/12/25 01:25:51;;;;;;;1.33;0.40;;;;;;;12.18;82.27;96861.84;6126033;28;20203;-50
2023/12/25 01:28:53;;;;;;;0.40;0.40;;;;;;;12.20;81.54;96858.88;6123418;29;20195;-50
2023/12/25 01:31:55;;;;;;;0.53;0.37;;;;;;;12.51;78.63;96849.69;6129687;28;20207;-52
2023/12/25 01:34:57;;;;;;;1.63;0.33;;;;;;;12.33;79.00;96844.97;6131122;28;20664;-50
2023/12/25 01:37:59;;;;;;;0.67;0.30;;;;;;;12.43;78.53;96839.56;6126642;28;20285;-49
2023/12/25 01:41:01;;;;;;;1.23;0.30;;;;;;;12.35;79.32;96864.16;6128378;28;20203;-51
2023/12/25 01:44:12;;;;;;;0.57;0.50;;;;;;;11.99;82.25;96866.16;6120645;29;20680;-52
2023/12/25 01:47:24;;;;;;;1.13;0.40;;;;;;;12.27;78.82;96876.22;6113390;28;20638;-50
2023/12/25 01:50:28;;;;;;;2.33;0.43;;;;;;;12.07;80.44;96894.97;6124677;28;20202;-51
2023/12/25 01:53:30;;;;;;;0.40;0.20;;;;;;;12.76;75.41;96880.00;6112230;28;20214;-49
2023/12/25 01:56:32;;;;;;;0.53;0.40;;;;;;;12.50;79.69;96890.81;6132437;29;20697;-52
2023/12/25 01:59:34;;;;;;;0.70;0.30;;;;;;;12.60;76.04;96887.31;6115308;29;20580;-50
2023/12/25 02:02:37;;;;;;;1.17;0.43;;;;;;;13.01;74.18;96885.25;6126556;29;20211;-50
2023/12/25 02:05:41;;;;;;;0.30;0.30;;;;;;;12.83;75.82;96881.31;6133725;28;20204;-50
2023/12/25 02:08:44;;;;;;;2.57;0.40;;;;;;;12.64;78.07;96883.03;6133236;28;20211;-49
2023/12/25 02:11:47;;;;;;;0.63;0.40;;;;;;;12.62;77.20;96855.78;6127496;28;20570;-51
2023/12/25 02:14:49;;;;;;;0.40;0.40;;;;;;;12.51;77.02;96864.91;6118748;28;20205;-50
2023/12/25 02:17:51;;;;;;;1.27;0.20;;;;;;;12.67;75.98;96877.13;6125440;28;20201;-51
2023/12/25 02:20:55;;;;;;;0.27;0.27;;;;;;;12.71;75.91;96890.72;6133045;29;20210;-51
2023/12/25 02:24:03;;;;;;;1.30;0.77;;;;;;;12.74;75.46;96891.00;6121020;29;20199;-52
2023/12/25 02:27:06;;;;;;;0.60;0.40;;;;;;;12.77;75.48;96857.59;6134602;28;20198;-50
2023/12/25 02:30:08;;;;;;;2.13;0.60;;;;;;;12.89;72.13;96869.53;6133662;28;20237;-51
2023/12/25 02:33:10;;;;;;;0.50;0.40;;;;;;;12.77;73.51;96890.44;6136468;29;20204;-51
2023/12/25 02:36:13;;;;;;;1.10;0.30;;;;;;;12.64;74.13;96931.13;6138337;28;20195;-52
2023/12/25 02:39:17;;;;;;;0.47;0.37;;;;;;;12.73;71.70;96816.44;6132981;28;20202;-51
2023/12/25 02:42:20;;;;;;;0.90;0.50;;;;;;;12.86;71.35;96898.69;6134946;29;20207;-51
2023/12/25 02:45:22;;;;;;;0.60;0.37;;;;;;;12.70;70.65;96871.22;6134206;28;20198;-50
2023/12/25 02:48:26;;;;;;;0.40;0.30;;;;;;;12.84;69.69;96922.22;6134797;29;20195;-51
2023/12/25 02:51:29;;;;;;;0.50;0.37;;;;;;;12.97;69.16;96873.50;6135759;28;20287;-53
2023/12/25 02:54:31;;;;;;;1.20;0.27;;;;;;;13.17;68.17;96918.84;6114327;29;20204;-49
2023/12/25 02:57:34;;;;;;;3.47;0.40;;;;;;;13.10;67.10;96885.44;6122116;29;20211;-51
2023/12/25 03:00:36;;;;;;;0.80;0.40;;;;;;;12.84;69.57;96898.97;6134643;29;20202;-49
2023/12/25 03:03:42;;;;;;;0.30;0.30;;;;;;;12.76;70.05;96877.34;6129262;28;20196;-51
2023/12/25 03:06:44;;;;;;;0.97;0.30;;;;;;;12.74;70.22;96871.50;6125399;28;20287;-51
2023/12/25 03:09:46;;;;;;;0.80;0.50;;;;;;;12.86;68.65;96914.75;6137855;28;20197;-50
2023/12/25 03:12:48;;;;;;;0.70;0.30;;;;;;;12.93;67.50;96869.78;6135016;29;20243;-50
2023/12/25 03:15:50;;;;;;;0.63;0.30;;;;;;;12.82;68.99;96885.09;6128535;28;20254;-53
2023/12/25 03:18:53;;;;;;;0.30;0.30;;;;;;;12.99;66.52;96924.81;6124636;28;20195;-49
2023/12/25 03:21:55;;;;;;;1.90;0.40;;;;;;;13.07;65.76;96897.50;6122506;29;20227;-48
2023/12/25 03:25:00;;;;;;;0.80;0.30;;;;;;;13.11;65.73;96895.88;6127773;28;20570;-49
2023/12/25 03:28:02;;;;;;;1.07;0.63;;;;;;;13.01;66.73;96908.50;6127892;28;20215;-49
2023/12/25 03:31:05;;;;;;;1.37;0.67;;;;;;;12.61;68.49;96887.06;6126063;28;20653;-51
2023/12/25 03:34:07;;;;;;;0.80;0.57;;;;;;;13.10;65.75;96907.66;6127752;29;20199;-51
2023/12/25 03:37:11;;;;;;;1.17;0.30;;;;;;;12.85;67.15;96923.81;6126522;28;20355;-51
2023/12/25 03:40:13;;;;;;;0.33;0.30;;;;;;;13.05;65.05;96906.88;6123420;28;20219;-50
2023/12/25 03:43:15;;;;;;;0.47;0.40;;;;;;;12.98;65.42;96901.81;6126476;28;20259;-51
2023/12/25 03:46:17;;;;;;;0.43;0.30;;;;;;;13.06;64.33;96911.94;6133902;28;20207;-50
2023/12/25 03:49:19;;;;;;;0.57;0.50;;;;;;;13.00;65.61;96893.53;6121590;29;20238;-51
2023/12/25 03:52:24;;;;;;;0.67;0.30;;;;;;;13.12;64.01;96950.97;6131789;28;20203;-50
2023/12/25 03:55:26;;;;;;;1.43;0.40;;;;;;;12.94;65.94;96908.00;6115013;29;20204;-52
2023/12/25 03:58:29;;;;;;;0.30;0.30;;;;;;;12.91;64.49;96923.53;6109247;28;20206;-48
2023/12/25 04:01:31;;;;;;;0.30;0.30;;;;;;;13.03;64.27;96943.78;6133137;29;20206;-51
2023/12/25 04:04:33;;;;;;;0.40;0.40;;;;;;;13.10;64.08;96928.22;6135307;28;20199;-52
2023/12/25 04:07:36;;;;;;;0.93;0.33;;;;;;;12.82;64.32;96919.81;6120129;29;20460;-49
2023/12/25 04:10:38;;;;;;;0.70;0.30;;;;;;;12.99;64.85;96956.09;6133750;28;20203;-48
2023/12/25 04:13:40;;;;;;;0.33;0.33;;;;;;;13.08;64.37;96947.22;6134459;28;20233;-49
2023/12/25 04:16:42;;;;;;;0.40;0.30;;;;;;;13.12;63.47;96910.84;6135776;28;20191;-48
2023/12/25 04:19:44;;;;;;;1.40;0.27;;;;;;;13.03;63.70;96959.81;6125452;29;20669;-49
2023/12/25 04:22:48;;;;;;;1.40;0.30;;;;;;;12.94;64.31;96964.94;6136671;28;20342;-49
2023/12/25 04:25:50;;;;;;;0.30;0.30;;;;;;;13.13;62.76;96971.25;6137085;28;20578;-50
2023/12/25 04:28:52;;;;;;;0.70;0.30;;;;;;;12.89;65.11;96965.75;6133247;28;20199;-51
2023/12/25 04:31:55;;;;;;;0.30;0.23;;;;;;;12.94;64.16;96962.25;6123054;29;20203;-51
2023/12/25 04:34:58;;;;;;;0.60;0.30;;;;;;;12.91;64.31;96974.31;6136097;28;20191;-49
2023/12/25 04:38:00;;;;;;;0.50;0.30;;;;;;;12.90;63.90;96958.53;6135697;28;20305;-48
2023/12/25 04:41:02;;;;;;;1.20;0.30;;;;;;;13.08;63.22;96962.47;6124156;29;20765;-49
2023/12/25 04:44:04;;;;;;;0.83;0.53;;;;;;;12.80;63.65;96974.63;6130395;28;20201;-51
2023/12/25 04:47:06;;;;;;;0.80;0.33;;;;;;;12.68;65.61;96982.94;6109436;29;20207;-48
2023/12/25 04:50:09;;;;;;;2.10;0.30;;;;;;;12.67;64.05;96962.66;6118796;28;20203;-49
2023/12/25 04:53:11;;;;;;;0.97;0.30;;;;;;;12.65;64.63;96989.63;6125278;28;20207;-48
2023/12/25 04:56:13;;;;;;;0.50;0.30;;;;;;;12.82;63.62;96975.97;6123510;29;20884;-52
2023/12/25 04:59:16;;;;;;;1.30;0.30;;;;;;;12.62;64.91;96979.50;6117252;29;20211;-49
2023/12/25 05:02:18;;;;;;;0.30;0.30;;;;;;;12.75;63.12;97012.84;6126257;29;20223;-52
2023/12/25 05:05:20;;;;;;;0.23;0.23;;;;;;;12.60;63.01;96962.13;6130853;28;20199;-50
2023/12/25 05:08:23;;;;;;;0.40;0.40;;;;;;;12.68;62.95;97008.88;6135066;28;20199;-48
2023/12/25 05:11:25;;;;;;;0.30;0.30;;;;;;;12.87;62.18;97005.34;6119754;29;20321;-51
2023/12/25 05:14:27;;;;;;;0.40;0.30;;;;;;;12.67;63.05;97013.44;6133304;28;20199;-48
2023/12/25 05:17:31;;;;;;;1.03;0.30;;;;;;;12.67;62.93;97031.34;6126363;28;20559;-49
2023/12/25 05:20:33;;;;;;;0.40;0.30;;;;;;;12.69;62.81;97032.66;6133044;28;20573;-48
2023/12/25 05:23:35;;;;;;;0.33;0.20;;;;;;;12.69;62.66;97021.16;6132505;29;20211;-51
2023/12/25 05:26:37;;;;;;;1.60;0.40;;;;;;;12.53;64.13;97015.06;6141043;28;20204;-48
2023/12/25 05:29:39;;;;;;;0.77;0.30;;;;;;;12.47;63.46;96995.56;6138019;28;20230;-51
2023/12/25 05:32:41;;;;;;;0.60;0.30;;;;;;;12.31;65.66;97058.06;6134358;28;20232;-50
2023/12/25 05:35:44;;;;;;;0.83;0.40;;;;;;;12.46;61.62;97022.53;6131598;28;20569;-51
2023/12/25 05:38:46;;;;;;;1.13;0.23;;;;;;;12.50;62.30;97018.25;6132837;28;20249;-51
2023/12/25 05:42:07;;;;;;;0.70;0.40;;;;;;;12.47;63.19;97034.84;6130966;28;20300;-49
2023/12/25 05:45:09;;;;;;;0.60;0.40;;;;;;;12.55;61.28;97061.78;6131913;28;20202;-48
2023/12/25 05:48:11;;;;;;;0.60;0.20;;;;;;;12.42;63.35;97051.69;6126497;28;20663;-50
2023/12/25 05:51:13;;;;;;;0.57;0.30;;;;;;;12.46;62.56;97059.94;6133714;28;20206;-48
2023/12/25 05:54:16;;;;;;;0.63;0.30;;;;;;;12.41;61.80;97063.41;6129760;28;20199;-50
2023/12/25 05:57:18;;;;;;;1.60;0.40;;;;;;;12.44;62.31;97038.84;6127636;28;20210;-51
2023/12/25 06:00:20;;;;;;;0.30;0.27;;;;;;;12.26;62.10;97053.53;6128110;28;20199;-50
2023/12/25 06:03:22;;;;;;;0.30;0.27;;;;;;;12.38;61.92;97063.97;6129957;29;20868;-51
2023/12/25 06:06:24;;;;;;;1.20;0.30;;;;;;;12.24;62.92;97057.56;6137609;28;20193;-52
2023/12/25 06:09:27;;;;;;;0.50;0.30;;;;;;;12.14;63.23;97055.69;6140978;28;20194;-50
2023/12/25 06:12:29;;;;;;;0.30;0.30;;;;;;;12.17;61.77;97062.34;6138350;28;20689;-52
2023/12/25 06:15:31;;;;;;;0.40;0.37;;;;;;;12.49;60.47;97008.66;6138518;29;20206;-49
2023/12/25 06:18:33;;;;;;;0.30;0.30;;;;;;;12.30;62.48;97030.56;6144089;28;20675;-48
2023/12/25 06:21:35;;;;;;;0.67;0.47;;;;;;;12.25;62.02;97035.91;6141331;28;20207;-49
2023/12/25 06:24:38;;;;;;;0.50;0.37;;;;;;;12.14;61.04;97019.09;6139963;28;20281;-51
2023/12/25 06:27:40;;;;;;;0.40;0.30;;;;;;;12.40;59.89;97059.94;6132566;28;20313;-51
2023/12/25 06:30:58;;;;;;;1.43;0.50;;;;;;;12.49;59.33;97065.56;6137999;28;20199;-49
2023/12/25 06:34:01;;;;;;;0.80;0.30;;;;;;;12.30;59.21;97005.72;6124162;28;20726;-48
2023/12/25 06:37:04;;;;;;;0.37;0.30;;;;;;;12.39;60.79;97038.84;6126936;28;20203;-49
2023/12/25 06:40:06;;;;;;;0.50;0.40;;;;;;;12.22;60.61;97047.16;6134580;28;20227;-49
2023/12/25 06:43:09;;;;;;;0.53;0.40;;;;;;;12.49;58.26;97019.34;6128895;28;20213;-50
2023/12/25 06:46:12;;;;;;;0.40;0.30;;;;;;;12.38;58.77;97018.56;6123229;29;20207;-50
2023/12/25 06:49:14;;;;;;;1.17;0.30;;;;;;;12.30;59.58;97054.59;6128054;28;20199;-48
2023/12/25 06:52:16;;;;;;;1.13;0.23;;;;;;;12.51;57.50;97034.03;6123518;29;20198;-52
2023/12/25 06:55:19;;;;;;;2.53;0.50;;;;;;;12.29;57.30;97009.47;6129214;28;20707;-47
2023/12/25 06:58:21;;;;;;;0.43;0.30;;;;;;;12.29;57.70;97076.25;6131894;28;20234;-49
2023/12/25 07:01:23;;;;;;;0.30;0.30;;;;;;;12.51;56.75;97031.38;6132385;28;20722;-49
2023/12/25 07:04:25;;;;;;;0.30;0.30;;;;;;;12.23;57.64;97038.06;6132462;28;20202;-49
2023/12/25 07:07:28;;;;;;;0.30;0.30;;;;;;;12.50;55.22;97027.06;6134002;28;20541;-50
2023/12/25 07:10:30;;;;;;;2.17;0.40;;;;;;;12.45;55.27;97020.94;6131583;28;20313;-49
2023/12/25 07:13:34;;;;;;;2.10;0.40;;;;;;;12.45;53.12;97004.91;6132877;28;20235;-51
2023/12/25 07:16:36;;;;;;;0.93;0.30;;;;;;;12.25;57.00;97027.91;6136631;28;20203;-49
2023/12/25 07:19:38;;;;;;;0.30;0.30;;;;;;;12.68;52.38;97014.22;6133279;28;20202;-49
2023/12/25 07:22:40;;;;;;;0.30;0.30;;;;;;;12.54;54.59;97046.84;6131047;28;20767;-48
2023/12/25 07:25:42;;;;;;;1.40;0.20;;;;;;;12.13;55.02;97009.50;6131690;28;20277;-50
2023/12/25 07:28:45;;;;;;;0.40;0.20;;;;;;;12.20;56.01;97051.94;6131921;28;20198;-50
2023/12/25 07:31:47;;;;;;;1.30;0.47;;;;;;;12.75;52.07;97070.84;6130510;28;20368;-48
2023/12/25 07:34:49;;;;;;;1.53;0.40;;;;;;;12.70;52.52;97082.34;6131757;29;20245;-50
2023/12/25 07:37:52;;;;;;;0.33;0.33;;;;;;;12.68;52.02;97102.41;6122105;29;20200;-49
2023/12/25 07:40:55;;;;;;;1.07;0.30;;;;;;;12.59;53.12;97091.47;6130868;28;20268;-49
2023/12/25 07:44:00;;;;;;;0.37;0.30;;;;;;;12.80;52.16;97063.63;6130501;28;20219;-48
2023/12/25 07:47:02;;;;;;;0.20;0.20;;;;;;;12.64;54.38;97070.06;6127326;28;20199;-47
2023/12/25 07:50:05;;;;;;;0.20;0.20;;;;;;;12.82;51.01;97066.03;6128558;28;20287;-50
2023/12/25 07:53:07;;;;;;;0.90;0.30;;;;;;;13.12;49.17;97084.66;6126215;28;20198;-51
2023/12/25 07:56:09;;;;;;;0.30;0.30;;;;;;;12.98;50.66;97086.31;6127191;28;20199;-50
2023/12/25 07:59:11;;;;;;;0.30;0.30;;;;;;;13.00;50.75;97118.91;6124153;28;20192;-49
2023/12/25 08:02:13;;;;;;;0.30;0.30;;;;;;;12.84;51.76;97109.31;6128299;28;20698;-51
2023/12/25 08:05:15;;;;;;;0.30;0.30;;;;;;;12.93;51.63;97123.75;6131007;29;20283;-49
2023/12/25 08:08:18;;;;;;;0.30;0.30;;;;;;;12.73;52.55;97100.53;6129355;28;20187;-49
2023/12/25 08:11:20;;;;;;;0.40;0.40;;;;;;;12.86;50.81;97101.84;6115025;29;20265;-50
2023/12/25 08:14:24;;;;;;;0.30;0.30;;;;;;;12.80;52.76;97138.47;6124686;28;20199;-47
2023/12/25 08:17:27;;;;;;;0.37;0.37;;;;;;;12.70;51.96;97116.28;6126282;28;20222;-48
2023/12/25 08:20:29;;;;;;;0.20;0.20;;;;;;;12.84;51.05;97110.13;6129538;28;20756;-50
2023/12/25 08:23:31;;;;;;;0.50;0.30;;;;;;;12.92;50.38;97132.84;6136524;28;20225;-50
2023/12/25 08:26:35;;;;;;;1.23;0.40;;;;;;;13.05;49.57;97132.31;6127699;28;20206;-48
2023/12/25 08:29:37;;;;;;;0.30;0.30;;;;;;;13.11;48.85;97119.72;6127116;29;20277;-49
2023/12/25 08:32:39;;;;;;;0.30;0.30;;;;;;;12.98;49.48;97123.75;6127461;28;20199;-50
2023/12/25 08:35:41;;;;;;;0.70;0.40;;;;;;;12.97;49.34;97132.03;6128085;29;20218;-49
2023/12/25 08:38:44;;;;;;;0.23;0.23;;;;;;;13.18;48.72;97145.09;6136692;28;20202;-50
2023/12/25 08:41:46;;;;;;;1.47;0.40;;;;;;;13.25;48.10;97138.66;6137574;28;20398;-50
2023/12/25 08:44:48;;;;;;;0.30;0.30;;;;;;;13.26;48.35;97170.53;6129776;28;20337;-49
2023/12/25 08:47:52;;;;;;;0.93;0.30;;;;;;;13.33;48.69;97141.59;6136013;28;20210;-50
2023/12/25 08:50:55;;;;;;;0.77;0.50;;;;;;;13.39;47.47;97131.69;6136536;28;20191;-48
2023/12/25 08:53:57;;;;;;;0.20;0.20;;;;;;;13.51;46.95;97145.56;6136221;28;20503;-48
2023/12/25 08:56:59;;;;;;;0.30;0.30;;;;;;;13.60;46.58;97148.47;6134528;29;20201;-49
2023/12/25 09:00:10;;;;;;;2.07;0.40;;;;;;;13.63;47.42;97182.72;6136506;28;20339;-47
2023/12/25 09:03:13;;;;;;;0.40;0.30;;;;;;;13.66;47.68;97134.78;6133927;28;20202;-51
2023/12/25 09:06:15;;;;;;;0.53;0.50;;;;;;;13.46;48.10;97140.22;6140973;28;20289;-50
2023/12/25 09:09:17;;;;;;;0.30;0.30;;;;;;;13.62;47.38;97181.91;6138499;28;20207;-47
2023/12/25 09:12:19;;;;;;;0.27;0.27;;;;;;;13.57;48.66;97178.44;6136899;28;20741;-51
2023/12/25 09:15:21;;;;;;;1.40;0.40;;;;;;;13.66;48.97;97191.00;6137932;28;20198;-49
2023/12/25 09:18:25;;;;;;;0.20;0.20;;;;;;;13.57;49.15;97171.22;6119102;28;20246;-51
2023/12/25 09:21:27;;;;;;;0.40;0.40;;;;;;;13.40;49.52;97165.41;6131893;28;20203;-50
2023/12/25 09:24:29;;;;;;;0.77;0.30;;;;;;;13.51;48.66;97182.22;6130365;28;20218;-50
2023/12/25 09:27:31;;;;;;;0.77;0.40;;;;;;;13.43;49.34;97162.97;6130098;28;20788;-49
2023/12/25 09:30:33;;;;;;;0.30;0.20;;;;;;;13.42;48.18;97173.94;6133532;28;20465;-51
2023/12/25 09:33:36;;;;;;;0.30;0.30;;;;;;;13.38;48.09;97152.28;6137402;28;20207;-49
2023/12/25 09:36:38;;;;;;;0.80;0.30;;;;;;;13.33;48.12;97156.84;6133970;28;20204;-51
2023/12/25 09:39:43;;;;;;;2.43;0.30;;;;;;;13.25;48.79;97168.94;6133244;28;20569;-47
2023/12/25 09:42:45;;;;;;;1.60;0.37;;;;;;;12.98;51.81;97165.72;6135046;28;20747;-49
2023/12/25 09:45:49;;;;;;;0.30;0.30;;;;;;;13.38;47.79;97157.63;6114481;28;20290;-48
2023/12/25 09:48:52;;;;;;;0.77;0.40;;;;;;;12.98;49.88;97130.97;6132007;28;20195;-50
2023/12/25 09:51:57;;;;;;;0.33;0.33;;;;;;;13.25;49.21;97181.47;6129158;28;20219;-51
2023/12/25 09:54:59;;;;;;;0.30;0.30;;;;;;;13.12;48.60;97153.41;6119858;29;20203;-49
2023/12/25 09:58:06;;;;;;;2.70;0.83;;;;;;;13.14;49.70;97186.81;6126166;28;20216;-51
2023/12/25 10:01:08;;;;;;;0.37;0.30;;;;;;;13.10;49.36;97180.44;6130535;28;20227;-50
2023/12/25 10:04:10;;;;;;;0.20;0.20;;;;;;;13.29;48.21;97186.00;6129854;29;20211;-50
2023/12/25 10:07:13;;;;;;;0.50;0.50;;;;;;;13.33;47.76;97203.13;6141866;28;20208;-49
2023/12/25 10:10:15;;;;;;;0.50;0.40;;;;;;;13.37;49.00;97203.41;6129127;28;20198;-50
2023/12/25 10:13:18;;;;;;;1.67;0.40;;;;;;;13.28;48.86;97205.00;6129523;28;20246;-49
2023/12/25 10:16:20;;;;;;;0.80;0.47;;;;;;;13.21;50.15;97201.81;6138656;29;20699;-49
2023/12/25 10:19:22;;;;;;;0.63;0.40;;;;;;;13.15;50.13;97209.84;6128617;28;20203;-48
2023/12/25 10:22:27;;;;;;;0.30;0.30;;;;;;;13.00;52.13;97199.13;6129025;28;20207;-48
2023/12/25 10:25:29;;;;;;;0.50;0.40;;;;;;;13.06;49.81;97192.72;6136555;28;20206;-51
2023/12/25 10:28:33;;;;;;;1.60;0.47;;;;;;;13.09;51.25;97210.88;6137795;28;20216;-50
2023/12/25 10:31:40;;;;;;;1.10;0.50;;;;;;;13.08;51.02;97205.81;6131940;28;20349;-49
2023/12/25 10:34:42;;;;;;;0.70;0.50;;;;;;;12.85;52.65;97189.25;6134621;28;20577;-50
2023/12/25 10:37:45;;;;;;;0.60;0.50;;;;;;;12.89;52.23;97209.03;6135519;28;20199;-50
2023/12/25 10:40:47;;;;;;;0.50;0.50;;;;;;;12.93;52.17;97208.50;6134782;28;20199;-49
2023/12/25 10:43:59;;;;;;;0.60;0.30;;;;;;;13.01;52.41;97192.72;6136403;28;20226;-50
2023/12/25 10:47:02;;;;;;;1.17;0.63;;;;;;;13.05;52.72;97192.97;6135341;28;20199;-50
2023/12/25 10:50:05;;;;;;;0.90;0.60;;;;;;;13.12;50.42;97191.63;6136913;28;20250;-49
2023/12/25 10:53:10;;;;;;;0.67;0.40;;;;;;;13.13;50.96;97190.56;6136422;28;20191;-49
2023/12/25 10:56:12;;;;;;;0.40;0.40;;;;;;;12.60;51.81;97106.41;6136463;28;20407;-51
2023/12/25 10:59:35;;;;;;;0.83;0.50;;;;;;;13.15;50.26;97187.59;6131444;28;20245;-48
2023/12/25 11:02:39;;;;;;;0.40;0.40;;;;;;;13.06;52.29;97192.72;6136092;28;20295;-50
2023/12/25 11:05:41;;;;;;;0.50;0.50;;;;;;;13.24;48.86;97178.00;6129298;28;20284;-49
2023/12/25 11:08:44;;;;;;;0.60;0.40;;;;;;;13.34;48.59;97187.88;6137481;28;20301;-49
2023/12/25 11:11:46;;;;;;;0.40;0.40;;;;;;;13.21;51.31;97197.25;6127558;28;20727;-50
2023/12/25 11:14:49;;;;;;;0.40;0.40;;;;;;;13.31;48.18;97183.88;6125521;28;20516;-49
2023/12/25 11:17:51;;;;;;;0.60;0.50;;;;;;;13.17;48.63;97162.22;6138573;28;20200;-51
2023/12/25 11:21:08;;;;;;;0.43;0.40;;;;;;;13.45;47.75;97167.25;6138790;28;20199;-50
2023/12/25 11:24:12;;;;;;;2.27;0.53;;;;;;;13.33;47.60;97175.56;6134504;28;20339;-48
2023/12/25 11:27:17;;;;;;;1.63;0.50;;;;;;;13.40;46.44;97162.72;6132470;28;20229;-48
2023/12/25 11:30:21;;;;;;;1.50;0.50;;;;;;;13.50;46.53;97186.78;6130594;28;20196;-50
2023/12/25 11:33:24;;;;;;;0.80;0.50;;;;;;;13.67;46.15;97168.50;6126889;28;20191;-49
2023/12/25 11:36:29;;;;;;;0.97;0.47;;;;;;;13.49;47.96;97176.31;6125306;28;20575;-49
2023/12/25 11:39:32;;;;;;;1.00;0.53;;;;;;;13.39;48.61;97156.56;6135539;28;20551;-48
2023/12/25 11:42:36;;;;;;;0.40;0.40;;;;;;;13.40;46.31;97176.91;6125806;28;20291;-49
2023/12/25 11:45:46;;;;;;;1.30;0.53;;;;;;;13.70;45.48;97174.41;6114309;29;20812;-51
2023/12/25 11:49:00;;;;;;;0.40;0.40;;;;;;;13.51;47.58;97175.00;6128467;28;20695;-50
2023/12/25 11:52:04;;;;;;;0.90;0.83;;;;;;;13.66;46.16;97172.25;6129587;28;20200;-50
2023/12/25 11:55:08;;;;;;;0.67;0.40;;;;;;;13.58;46.98;97182.72;6128485;29;20290;-49
2023/12/25 11:58:10;;;;;;;0.57;0.40;;;;;;;13.49;48.36;97171.78;6132211;28;20226;-50
2023/12/25 12:01:19;;;;;;;4.10;0.70;;;;;;;13.64;45.58;97142.31;6125336;28;20191;-51
2023/12/25 12:04:21;;;;;;;0.90;0.60;;;;;;;13.54;46.61;97174.44;6129101;28;20668;-49
2023/12/25 12:07:23;;;;;;;0.80;0.60;;;;;;;13.36;48.06;97178.53;6129199;28;20199;-51
2023/12/25 12:10:25;;;;;;;1.13;0.67;;;;;;;13.31;46.94;97197.25;6141653;28;20214;-52
2023/12/25 12:13:27;;;;;;;1.00;0.60;;;;;;;13.37;46.81;97190.03;6140369;29;20846;-49
2023/12/25 12:16:30;;;;;;;1.10;0.70;;;;;;;13.47;47.46;97183.84;6134692;28;20562;-50
2023/12/25 12:19:32;;;;;;;0.40;0.40;;;;;;;13.33;47.40;97184.41;6139120;28;20247;-48
2023/12/25 12:22:35;;;;;;;1.20;0.50;;;;;;;13.26;48.26;97177.75;6133157;28;20333;-49
2023/12/25 12:25:37;;;;;;;0.87;0.43;;;;;;;13.30;48.03;97186.81;6133003;28;20206;-49
2023/12/25 12:28:40;;;;;;;1.60;0.60;;;;;;;13.49;46.47;97154.91;6134813;28;20191;-51
2023/12/25 12:31:42;;;;;;;2.17;0.50;;;;;;;13.53;46.97;97194.25;6128510;29;20611;-47
2023/12/25 12:34:44;;;;;;;0.53;0.50;;;;;;;13.56;45.69;97177.66;6134082;28;20196;-50
2023/12/25 12:37:48;;;;;;;0.87;0.60;;;;;;;13.50;46.04;97159.22;6137530;28;20202;-50
2023/12/25 12:40:50;;;;;;;1.30;0.50;;;;;;;13.43;45.89;97164.84;6142226;28;20198;-48
2023/12/25 12:43:59;;;;;;;1.40;0.50;;;;;;;13.42;47.40;97173.94;6143523;28;20218;-50
2023/12/25 12:47:01;;;;;;;0.40;0.40;;;;;;;13.43;47.13;97191.59;6141918;28;20199;-48
2023/12/25 12:50:04;;;;;;;0.50;0.50;;;;;;;13.43;46.38;97180.91;6144115;28;20635;-48
2023/12/25 12:53:06;;;;;;;1.37;0.60;;;;;;;13.49;46.48;97187.03;6127471;29;20202;-50
2023/12/25 12:56:08;;;;;;;1.00;0.70;;;;;;;13.27;48.45;97187.38;6142070;28;20647;-49
2023/12/25 12:59:10;;;;;;;2.40;0.50;;;;;;;13.19;48.30;97196.69;6133812;28;20211;-49
2023/12/25 13:02:14;;;;;;;1.03;0.50;;;;;;;13.07;49.76;97185.50;6144226;28;20560;-49
2023/12/25 13:05:16;;;;;;;0.67;0.60;;;;;;;13.29;47.51;97182.53;6125780;28;20237;-51
2023/12/25 13:08:18;;;;;;;2.07;0.47;;;;;;;13.15;48.60;97191.13;6133315;28;20667;-49
2023/12/25 13:11:25;;;;;;;0.70;0.60;;;;;;;13.01;49.97;97186.59;6112648;29;20760;-50
2023/12/25 13:14:27;;;;;;;1.07;0.50;;;;;;;12.91;50.16;97184.72;6126677;28;20200;-50
2023/12/25 13:17:30;;;;;;;0.80;0.60;;;;;;;12.81;51.18;97182.84;6134292;28;20290;-47
2023/12/25 13:20:32;;;;;;;0.60;0.50;;;;;;;12.91;50.94;97188.19;6128563;28;20199;-53
2023/12/25 13:23:37;;;;;;;0.80;0.60;;;;;;;12.76;50.68;97152.63;6131275;28;20210;-48
2023/12/25 13:26:39;;;;;;;0.83;0.60;;;;;;;12.93;50.44;97163.06;6130032;28;20199;-52
2023/12/25 13:29:41;;;;;;;0.47;0.47;;;;;;;12.86;50.35;97155.31;6131468;28;20203;-49
2023/12/25 13:32:43;;;;;;;0.70;0.60;;;;;;;12.91;50.10;97158.00;6131076;29;20210;-49
2023/12/25 13:35:45;;;;;;;0.43;0.40;;;;;;;12.97;49.07;97143.53;6132562;28;20294;-48
2023/12/25 13:38:47;;;;;;;0.60;0.60;;;;;;;13.09;48.08;97127.19;6133717;28;20770;-50
2023/12/25 13:41:50;;;;;;;1.77;0.53;;;;;;;13.28;47.60;97141.63;6132168;28;20200;-49
2023/12/25 13:44:52;;;;;;;0.50;0.40;;;;;;;13.39;47.66;97150.41;6133113;28;20207;-50
2023/12/25 13:47:54;;;;;;;0.70;0.50;;;;;;;13.42;47.44;97165.91;6132894;28;20302;-49
2023/12/25 13:50:57;;;;;;;1.17;0.70;;;;;;;13.53;45.32;97169.38;6135944;28;20559;-50
2023/12/25 13:53:59;;;;;;;1.03;0.53;;;;;;;13.57;45.16;97162.41;6131149;28;20195;-50
2023/12/25 13:57:02;;;;;;;2.20;0.70;;;;;;;13.56;44.17;97183.00;6132109;29;20578;-49
2023/12/25 14:00:05;;;;;;;0.73;0.53;;;;;;;13.56;46.59;97180.34;6132039;28;20848;-47
2023/12/25 14:03:09;;;;;;;0.50;0.50;;;;;;;13.47;46.61;97200.69;6132742;28;20322;-50
2023/12/25 14:06:11;;;;;;;0.60;0.53;;;;;;;13.63;43.80;97188.06;6133798;28;20203;-48
2023/12/25 14:09:15;;;;;;;1.50;0.70;;;;;;;13.57;43.84;97195.31;6130971;28;20841;-49
2023/12/25 14:12:18;;;;;;;0.40;0.40;;;;;;;13.77;43.51;97193.63;6124532;29;20313;-50
2023/12/25 14:15:20;;;;;;;0.33;0.33;;;;;;;13.68;45.69;97188.03;6132056;28;20692;-48
2023/12/25 14:18:22;;;;;;;1.50;0.40;;;;;;;13.52;45.57;97181.94;6124720;28;20684;-50
2023/12/25 14:21:25;;;;;;;0.60;0.57;;;;;;;13.44;44.07;97203.91;6122784;28;20680;-48